Kezdőlap
METAR-TAF:

METAR-TAF

Repülőterek :

Epinal, Franciaország

földrajzi szélesség: 48-19-31N, földrajzi hosszúság: 6-04-00E, magasság: 330 m

Jelenlegi meteorológiai megfigyelések

A jelentés 38 perccel ezelõtt készült, 12:00 UTC
Nyugat-délnyugati szél 11 kt
Hőmérséklet 9°C
Páratartalom 87%
Légköri nyomás 1007 hPa
Látótávolság 10 km, vagy több
enyhe esõ

METAR: LFSG 151200Z AUTO 25011KT 9999 -RA FEW019/// BKN045/// OVC054/// ///TCU 09/07 Q1007

Idő: 13:38 (12:38 UTC)


TAF: hiányzik

Meteorológiai megfigyelések és előrejelzések több, mint 4000 repülőtéren (METAR és TAF jelentéseket).

A térképen piros és sárga pontok jelzik az elérhető meteorológiai állomásokat.

Mozgassa az egeret a pont fölött, hogy megjelenjen az állomás neve.

Azután kattintson az időjárási megfigyelések és előrejelzések megtekintéséhez.

A térkép megváltoztatása: kattintson a fekete keresztel jelölt zöld gombra ráközelítéshez, a vonallal jelölt zöld gombra távolításhoz, vagy a zöld nyilakra a szomszédos térképek eléréséhez.


METAR-TAF: